sensor_id;sensor_type;location;lat;lon;timestamp;P1;durP1;ratioP1;P2;durP2;ratioP2
16466;SDS011;8344;47.560;9.710;2023-02-28T00:00:18;1.00;;;1.00;;
16466;SDS011;8344;47.560;9.710;2023-02-28T00:02:44;0.90;;;0.90;;
16466;SDS011;8344;47.560;9.710;2023-02-28T00:05:10;0.90;;;0.90;;
16466;SDS011;8344;47.560;9.710;2023-02-28T00:07:37;1.10;;;1.10;;
16466;SDS011;8344;47.560;9.710;2023-02-28T00:10:03;1.10;;;1.10;;
16466;SDS011;8344;47.560;9.710;2023-02-28T00:12:31;0.90;;;0.90;;
16466;SDS011;8344;47.560;9.710;2023-02-28T00:14:56;0.97;;;0.97;;
16466;SDS011;8344;47.560;9.710;2023-02-28T00:17:22;0.90;;;0.90;;
16466;SDS011;8344;47.560;9.710;2023-02-28T00:19:47;1.00;;;1.00;;
16466;SDS011;8344;47.560;9.710;2023-02-28T00:22:13;1.10;;;1.10;;
16466;SDS011;8344;47.560;9.710;2023-02-28T00:24:39;1.03;;;1.03;;
16466;SDS011;8344;47.560;9.710;2023-02-28T00:27:05;1.00;;;1.00;;
16466;SDS011;8344;47.560;9.710;2023-02-28T00:29:30;1.10;;;1.10;;
16466;SDS011;8344;47.560;9.710;2023-02-28T00:31:55;1.00;;;1.00;;
16466;SDS011;8344;47.560;9.710;2023-02-28T00:34:21;0.77;;;0.77;;
16466;SDS011;8344;47.560;9.710;2023-02-28T00:36:46;0.93;;;0.93;;
16466;SDS011;8344;47.560;9.710;2023-02-28T00:39:13;1.00;;;1.00;;
16466;SDS011;8344;47.560;9.710;2023-02-28T00:41:39;1.20;;;1.20;;
16466;SDS011;8344;47.560;9.710;2023-02-28T00:44:04;1.00;;;1.00;;
16466;SDS011;8344;47.560;9.710;2023-02-28T00:46:29;1.10;;;1.10;;
16466;SDS011;8344;47.560;9.710;2023-02-28T00:48:55;1.10;;;1.10;;
16466;SDS011;8344;47.560;9.710;2023-02-28T00:51:20;1.10;;;1.10;;
16466;SDS011;8344;47.560;9.710;2023-02-28T00:53:45;1.00;;;1.00;;
16466;SDS011;8344;47.560;9.710;2023-02-28T00:56:11;0.97;;;0.97;;
16466;SDS011;8344;47.560;9.710;2023-02-28T00:58:36;1.10;;;1.10;;
16466;SDS011;8344;47.560;9.710;2023-02-28T01:01:01;1.20;;;1.20;;
16466;SDS011;8344;47.560;9.710;2023-02-28T01:03:27;1.10;;;1.10;;
16466;SDS011;8344;47.560;9.710;2023-02-28T01:05:52;1.10;;;1.10;;
16466;SDS011;8344;47.560;9.710;2023-02-28T01:08:21;1.20;;;1.20;;
16466;SDS011;8344;47.560;9.710;2023-02-28T01:10:46;1.20;;;1.20;;
16466;SDS011;8344;47.560;9.710;2023-02-28T01:13:12;1.00;;;1.00;;
16466;SDS011;8344;47.560;9.710;2023-02-28T01:15:38;1.07;;;1.07;;
16466;SDS011;8344;47.560;9.710;2023-02-28T01:18:07;1.00;;;1.00;;
16466;SDS011;8344;47.560;9.710;2023-02-28T01:20:32;0.90;;;0.90;;
16466;SDS011;8344;47.560;9.710;2023-02-28T01:22:57;1.03;;;1.03;;
16466;SDS011;8344;47.560;9.710;2023-02-28T01:25:23;1.10;;;1.10;;
16466;SDS011;8344;47.560;9.710;2023-02-28T01:27:48;0.90;;;0.90;;
16466;SDS011;8344;47.560;9.710;2023-02-28T01:30:13;1.00;;;1.00;;
16466;SDS011;8344;47.560;9.710;2023-02-28T01:32:39;1.00;;;1.00;;
16466;SDS011;8344;47.560;9.710;2023-02-28T01:35:04;0.90;;;0.90;;
16466;SDS011;8344;47.560;9.710;2023-02-28T01:37:30;1.00;;;1.00;;
16466;SDS011;8344;47.560;9.710;2023-02-28T01:39:55;1.00;;;1.00;;
16466;SDS011;8344;47.560;9.710;2023-02-28T01:42:20;1.00;;;1.00;;
16466;SDS011;8344;47.560;9.710;2023-02-28T01:47:35;1.20;;;1.20;;
16466;SDS011;8344;47.560;9.710;2023-02-28T01:50:02;1.00;;;1.00;;
16466;SDS011;8344;47.560;9.710;2023-02-28T01:52:30;0.90;;;0.90;;
16466;SDS011;8344;47.560;9.710;2023-02-28T01:54:56;1.07;;;1.07;;
16466;SDS011;8344;47.560;9.710;2023-02-28T01:57:24;0.97;;;0.97;;
16466;SDS011;8344;47.560;9.710;2023-02-28T01:59:53;1.03;;;1.03;;
16466;SDS011;8344;47.560;9.710;2023-02-28T02:02:21;1.20;;;1.20;;
16466;SDS011;8344;47.560;9.710;2023-02-28T02:04:53;0.90;;;0.90;;
16466;SDS011;8344;47.560;9.710;2023-02-28T02:07:20;1.00;;;1.00;;
16466;SDS011;8344;47.560;9.710;2023-02-28T02:09:46;0.90;;;0.90;;
16466;SDS011;8344;47.560;9.710;2023-02-28T02:15:20;1.10;;;1.10;;
16466;SDS011;8344;47.560;9.710;2023-02-28T02:17:50;1.00;;;1.00;;
16466;SDS011;8344;47.560;9.710;2023-02-28T02:20:32;0.90;;;0.90;;
16466;SDS011;8344;47.560;9.710;2023-02-28T02:38:55;0.90;;;0.90;;
16466;SDS011;8344;47.560;9.710;2023-02-28T02:41:51;0.90;;;0.90;;
16466;SDS011;8344;47.560;9.710;2023-02-28T02:44:22;0.90;;;0.90;;
16466;SDS011;8344;47.560;9.710;2023-02-28T02:46:51;1.10;;;1.10;;
16466;SDS011;8344;47.560;9.710;2023-02-28T02:49:22;1.13;;;1.13;;
16466;SDS011;8344;47.560;9.710;2023-02-28T02:51:50;1.00;;;1.00;;
16466;SDS011;8344;47.560;9.710;2023-02-28T02:54:17;1.10;;;1.10;;
16466;SDS011;8344;47.560;9.710;2023-02-28T02:56:46;0.80;;;0.80;;
16466;SDS011;8344;47.560;9.710;2023-02-28T02:59:13;0.90;;;0.90;;
16466;SDS011;8344;47.560;9.710;2023-02-28T03:01:46;0.80;;;0.80;;
16466;SDS011;8344;47.560;9.710;2023-02-28T03:04:16;1.00;;;1.00;;
16466;SDS011;8344;47.560;9.710;2023-02-28T03:06:43;1.10;;;1.10;;
16466;SDS011;8344;47.560;9.710;2023-02-28T03:09:08;1.10;;;1.10;;
16466;SDS011;8344;47.560;9.710;2023-02-28T03:11:34;0.90;;;0.90;;
16466;SDS011;8344;47.560;9.710;2023-02-28T03:14:11;1.10;;;1.10;;
16466;SDS011;8344;47.560;9.710;2023-02-28T03:19:52;0.83;;;0.83;;
16466;SDS011;8344;47.560;9.710;2023-02-28T03:25:07;1.10;;;1.10;;
16466;SDS011;8344;47.560;9.710;2023-02-28T03:31:15;1.10;;;1.10;;
16466;SDS011;8344;47.560;9.710;2023-02-28T03:33:44;1.10;;;1.10;;
16466;SDS011;8344;47.560;9.710;2023-02-28T03:36:25;1.07;;;1.07;;
16466;SDS011;8344;47.560;9.710;2023-02-28T03:38:58;1.20;;;1.20;;
16466;SDS011;8344;47.560;9.710;2023-02-28T03:41:50;1.20;;;1.20;;
16466;SDS011;8344;47.560;9.710;2023-02-28T03:44:16;1.10;;;1.10;;
16466;SDS011;8344;47.560;9.710;2023-02-28T03:46:48;1.13;;;1.13;;
16466;SDS011;8344;47.560;9.710;2023-02-28T03:49:19;1.00;;;1.00;;
16466;SDS011;8344;47.560;9.710;2023-02-28T03:51:48;1.00;;;1.00;;
16466;SDS011;8344;47.560;9.710;2023-02-28T03:54:16;1.07;;;1.07;;
16466;SDS011;8344;47.560;9.710;2023-02-28T03:56:52;1.10;;;1.10;;
16466;SDS011;8344;47.560;9.710;2023-02-28T03:59:27;1.10;;;1.10;;
16466;SDS011;8344;47.560;9.710;2023-02-28T04:01:53;1.17;;;1.17;;
16466;SDS011;8344;47.560;9.710;2023-02-28T04:04:20;1.20;;;1.20;;
16466;SDS011;8344;47.560;9.710;2023-02-28T04:06:45;1.00;;;1.00;;
16466;SDS011;8344;47.560;9.710;2023-02-28T04:09:12;1.20;;;1.20;;
16466;SDS011;8344;47.560;9.710;2023-02-28T04:14:06;0.90;;;0.90;;
16466;SDS011;8344;47.560;9.710;2023-02-28T04:16:32;1.10;;;1.10;;
16466;SDS011;8344;47.560;9.710;2023-02-28T04:18:58;1.10;;;1.10;;
16466;SDS011;8344;47.560;9.710;2023-02-28T04:21:29;1.17;;;1.17;;
16466;SDS011;8344;47.560;9.710;2023-02-28T04:24:02;1.10;;;1.10;;
16466;SDS011;8344;47.560;9.710;2023-02-28T04:26:35;0.90;;;0.90;;
16466;SDS011;8344;47.560;9.710;2023-02-28T04:29:02;1.00;;;1.00;;
16466;SDS011;8344;47.560;9.710;2023-02-28T04:31:28;0.90;;;0.90;;
16466;SDS011;8344;47.560;9.710;2023-02-28T04:33:53;1.00;;;1.00;;
16466;SDS011;8344;47.560;9.710;2023-02-28T04:36:19;1.07;;;1.07;;
16466;SDS011;8344;47.560;9.710;2023-02-28T04:38:44;1.00;;;1.00;;
16466;SDS011;8344;47.560;9.710;2023-02-28T04:41:10;1.17;;;1.17;;
16466;SDS011;8344;47.560;9.710;2023-02-28T04:43:36;1.10;;;1.10;;
16466;SDS011;8344;47.560;9.710;2023-02-28T04:46:02;1.03;;;1.03;;
16466;SDS011;8344;47.560;9.710;2023-02-28T04:48:29;1.30;;;1.30;;
16466;SDS011;8344;47.560;9.710;2023-02-28T04:50:59;1.00;;;1.00;;
16466;SDS011;8344;47.560;9.710;2023-02-28T04:53:25;1.20;;;1.20;;
16466;SDS011;8344;47.560;9.710;2023-02-28T04:55:50;1.00;;;1.00;;
16466;SDS011;8344;47.560;9.710;2023-02-28T04:58:16;0.90;;;0.90;;
16466;SDS011;8344;47.560;9.710;2023-02-28T05:00:41;0.90;;;0.90;;
16466;SDS011;8344;47.560;9.710;2023-02-28T05:03:07;0.97;;;0.97;;
16466;SDS011;8344;47.560;9.710;2023-02-28T05:05:32;1.10;;;1.10;;
16466;SDS011;8344;47.560;9.710;2023-02-28T05:07:57;1.00;;;1.00;;
16466;SDS011;8344;47.560;9.710;2023-02-28T05:10:23;1.03;;;1.03;;
16466;SDS011;8344;47.560;9.710;2023-02-28T05:12:48;1.20;;;1.20;;
16466;SDS011;8344;47.560;9.710;2023-02-28T05:15:14;1.03;;;1.03;;
16466;SDS011;8344;47.560;9.710;2023-02-28T05:17:40;1.07;;;1.07;;
16466;SDS011;8344;47.560;9.710;2023-02-28T05:20:06;0.90;;;0.90;;
16466;SDS011;8344;47.560;9.710;2023-02-28T05:22:33;1.10;;;1.10;;
16466;SDS011;8344;47.560;9.710;2023-02-28T05:24:58;1.03;;;1.03;;
16466;SDS011;8344;47.560;9.710;2023-02-28T05:27:24;1.20;;;1.20;;
16466;SDS011;8344;47.560;9.710;2023-02-28T05:29:49;1.07;;;1.07;;
16466;SDS011;8344;47.560;9.710;2023-02-28T05:32:15;1.10;;;1.10;;
16466;SDS011;8344;47.560;9.710;2023-02-28T05:34:40;1.30;;;1.30;;
16466;SDS011;8344;47.560;9.710;2023-02-28T05:37:06;1.00;;;1.00;;
16466;SDS011;8344;47.560;9.710;2023-02-28T05:39:36;0.90;;;0.90;;
16466;SDS011;8344;47.560;9.710;2023-02-28T05:42:02;1.00;;;1.00;;
16466;SDS011;8344;47.560;9.710;2023-02-28T05:44:27;1.00;;;1.00;;
16466;SDS011;8344;47.560;9.710;2023-02-28T05:46:52;1.00;;;1.00;;
16466;SDS011;8344;47.560;9.710;2023-02-28T05:49:17;1.20;;;1.20;;
16466;SDS011;8344;47.560;9.710;2023-02-28T05:51:43;0.80;;;0.80;;
16466;SDS011;8344;47.560;9.710;2023-02-28T05:54:08;1.00;;;1.00;;
16466;SDS011;8344;47.560;9.710;2023-02-28T05:56:33;0.80;;;0.80;;
16466;SDS011;8344;47.560;9.710;2023-02-28T05:59:04;1.20;;;1.20;;
16466;SDS011;8344;47.560;9.710;2023-02-28T06:01:35;1.10;;;1.10;;
16466;SDS011;8344;47.560;9.710;2023-02-28T06:04:05;1.13;;;1.13;;
16466;SDS011;8344;47.560;9.710;2023-02-28T06:06:32;0.90;;;0.90;;
16466;SDS011;8344;47.560;9.710;2023-02-28T06:08:59;0.93;;;0.93;;
16466;SDS011;8344;47.560;9.710;2023-02-28T06:11:25;1.10;;;1.10;;
16466;SDS011;8344;47.560;9.710;2023-02-28T06:13:55;1.10;;;1.10;;
16466;SDS011;8344;47.560;9.710;2023-02-28T06:16:21;1.13;;;1.13;;
16466;SDS011;8344;47.560;9.710;2023-02-28T06:18:47;0.90;;;0.90;;
16466;SDS011;8344;47.560;9.710;2023-02-28T06:21:12;1.00;;;1.00;;
16466;SDS011;8344;47.560;9.710;2023-02-28T06:23:37;0.97;;;0.97;;
16466;SDS011;8344;47.560;9.710;2023-02-28T06:26:03;0.93;;;0.93;;
16466;SDS011;8344;47.560;9.710;2023-02-28T06:28:28;0.97;;;0.97;;
16466;SDS011;8344;47.560;9.710;2023-02-28T06:30:53;1.20;;;1.20;;
16466;SDS011;8344;47.560;9.710;2023-02-28T06:33:19;1.10;;;1.10;;
16466;SDS011;8344;47.560;9.710;2023-02-28T06:35:46;1.20;;;1.20;;
16466;SDS011;8344;47.560;9.710;2023-02-28T06:38:11;1.00;;;1.00;;
16466;SDS011;8344;47.560;9.710;2023-02-28T06:40:37;1.13;;;1.13;;
16466;SDS011;8344;47.560;9.710;2023-02-28T06:43:02;1.10;;;1.10;;
16466;SDS011;8344;47.560;9.710;2023-02-28T06:45:28;0.87;;;0.87;;
16466;SDS011;8344;47.560;9.710;2023-02-28T06:47:53;1.17;;;1.17;;
16466;SDS011;8344;47.560;9.710;2023-02-28T06:50:18;1.00;;;1.00;;
16466;SDS011;8344;47.560;9.710;2023-02-28T06:52:45;1.10;;;1.10;;
16466;SDS011;8344;47.560;9.710;2023-02-28T06:55:11;1.10;;;1.10;;
16466;SDS011;8344;47.560;9.710;2023-02-28T06:57:37;1.10;;;1.10;;
16466;SDS011;8344;47.560;9.710;2023-02-28T07:00:04;1.20;;;1.20;;
16466;SDS011;8344;47.560;9.710;2023-02-28T07:02:33;1.10;;;1.10;;
16466;SDS011;8344;47.560;9.710;2023-02-28T07:04:59;1.17;;;1.17;;
16466;SDS011;8344;47.560;9.710;2023-02-28T07:07:24;0.90;;;0.90;;
16466;SDS011;8344;47.560;9.710;2023-02-28T07:09:49;0.90;;;0.90;;
16466;SDS011;8344;47.560;9.710;2023-02-28T07:12:14;1.20;;;1.20;;
16466;SDS011;8344;47.560;9.710;2023-02-28T07:14:40;0.93;;;0.93;;
16466;SDS011;8344;47.560;9.710;2023-02-28T07:17:09;1.00;;;1.00;;
16466;SDS011;8344;47.560;9.710;2023-02-28T07:19:36;1.00;;;1.00;;
16466;SDS011;8344;47.560;9.710;2023-02-28T07:22:03;1.13;;;1.13;;
16466;SDS011;8344;47.560;9.710;2023-02-28T07:24:28;1.10;;;1.10;;
16466;SDS011;8344;47.560;9.710;2023-02-28T07:26:54;1.00;;;1.00;;
16466;SDS011;8344;47.560;9.710;2023-02-28T07:29:19;1.00;;;1.00;;
16466;SDS011;8344;47.560;9.710;2023-02-28T07:31:45;1.10;;;1.10;;
16466;SDS011;8344;47.560;9.710;2023-02-28T07:34:11;0.80;;;0.80;;
16466;SDS011;8344;47.560;9.710;2023-02-28T07:36:36;1.00;;;1.00;;
16466;SDS011;8344;47.560;9.710;2023-02-28T07:39:02;1.00;;;1.00;;
16466;SDS011;8344;47.560;9.710;2023-02-28T07:41:27;1.00;;;1.00;;
16466;SDS011;8344;47.560;9.710;2023-02-28T07:43:54;0.97;;;0.97;;
16466;SDS011;8344;47.560;9.710;2023-02-28T07:46:22;0.90;;;0.90;;
16466;SDS011;8344;47.560;9.710;2023-02-28T07:48:47;0.87;;;0.87;;
16466;SDS011;8344;47.560;9.710;2023-02-28T07:51:12;0.73;;;0.73;;
16466;SDS011;8344;47.560;9.710;2023-02-28T07:53:38;0.93;;;0.93;;
16466;SDS011;8344;47.560;9.710;2023-02-28T07:56:03;0.90;;;0.90;;
16466;SDS011;8344;47.560;9.710;2023-02-28T07:58:29;0.90;;;0.90;;
16466;SDS011;8344;47.560;9.710;2023-02-28T08:00:55;1.00;;;1.00;;
16466;SDS011;8344;47.560;9.710;2023-02-28T08:03:22;1.10;;;1.10;;
16466;SDS011;8344;47.560;9.710;2023-02-28T08:05:48;1.00;;;1.00;;
16466;SDS011;8344;47.560;9.710;2023-02-28T08:08:15;0.90;;;0.90;;
16466;SDS011;8344;47.560;9.710;2023-02-28T08:10:41;1.00;;;1.00;;
16466;SDS011;8344;47.560;9.710;2023-02-28T08:13:06;1.10;;;1.10;;
16466;SDS011;8344;47.560;9.710;2023-02-28T08:15:32;0.87;;;0.87;;
16466;SDS011;8344;47.560;9.710;2023-02-28T08:17:57;1.00;;;1.00;;
16466;SDS011;8344;47.560;9.710;2023-02-28T08:20:23;1.00;;;1.00;;
16466;SDS011;8344;47.560;9.710;2023-02-28T08:22:49;1.10;;;1.10;;
16466;SDS011;8344;47.560;9.710;2023-02-28T08:25:14;1.00;;;1.00;;
16466;SDS011;8344;47.560;9.710;2023-02-28T08:27:40;1.07;;;1.07;;
16466;SDS011;8344;47.560;9.710;2023-02-28T08:30:05;1.20;;;1.20;;
16466;SDS011;8344;47.560;9.710;2023-02-28T08:32:32;0.83;;;0.83;;
16466;SDS011;8344;47.560;9.710;2023-02-28T08:34:57;0.90;;;0.90;;
16466;SDS011;8344;47.560;9.710;2023-02-28T08:37:23;0.80;;;0.80;;
16466;SDS011;8344;47.560;9.710;2023-02-28T08:39:48;1.07;;;1.07;;
16466;SDS011;8344;47.560;9.710;2023-02-28T08:42:13;1.10;;;1.10;;
16466;SDS011;8344;47.560;9.710;2023-02-28T08:44:39;0.90;;;0.90;;
16466;SDS011;8344;47.560;9.710;2023-02-28T08:47:05;0.80;;;0.80;;
16466;SDS011;8344;47.560;9.710;2023-02-28T08:49:30;0.90;;;0.90;;
16466;SDS011;8344;47.560;9.710;2023-02-28T08:51:56;1.00;;;1.00;;
16466;SDS011;8344;47.560;9.710;2023-02-28T08:54:22;0.87;;;0.87;;
16466;SDS011;8344;47.560;9.710;2023-02-28T08:56:47;1.07;;;1.07;;
16466;SDS011;8344;47.560;9.710;2023-02-28T08:59:13;0.77;;;0.77;;
16466;SDS011;8344;47.560;9.710;2023-02-28T09:01:38;0.90;;;0.90;;
16466;SDS011;8344;47.560;9.710;2023-02-28T09:04:04;0.90;;;0.90;;
16466;SDS011;8344;47.560;9.710;2023-02-28T09:06:31;0.77;;;0.77;;
16466;SDS011;8344;47.560;9.710;2023-02-28T09:08:57;1.10;;;1.10;;
16466;SDS011;8344;47.560;9.710;2023-02-28T09:11:26;0.90;;;0.90;;
16466;SDS011;8344;47.560;9.710;2023-02-28T09:13:52;0.90;;;0.90;;
16466;SDS011;8344;47.560;9.710;2023-02-28T09:16:17;0.90;;;0.90;;
16466;SDS011;8344;47.560;9.710;2023-02-28T09:18:43;0.80;;;0.80;;
16466;SDS011;8344;47.560;9.710;2023-02-28T09:21:10;1.00;;;1.00;;
16466;SDS011;8344;47.560;9.710;2023-02-28T09:23:39;0.90;;;0.90;;
16466;SDS011;8344;47.560;9.710;2023-02-28T09:26:04;1.00;;;1.00;;
16466;SDS011;8344;47.560;9.710;2023-02-28T09:28:30;0.90;;;0.90;;
16466;SDS011;8344;47.560;9.710;2023-02-28T09:30:55;0.80;;;0.80;;
16466;SDS011;8344;47.560;9.710;2023-02-28T09:33:22;0.90;;;0.90;;
16466;SDS011;8344;47.560;9.710;2023-02-28T09:35:48;0.90;;;0.90;;
16466;SDS011;8344;47.560;9.710;2023-02-28T09:38:14;0.80;;;0.80;;
16466;SDS011;8344;47.560;9.710;2023-02-28T09:40:54;0.80;;;0.80;;
16466;SDS011;8344;47.560;9.710;2023-02-28T09:43:25;0.83;;;0.83;;
16466;SDS011;8344;47.560;9.710;2023-02-28T09:45:55;1.00;;;1.00;;
16466;SDS011;8344;47.560;9.710;2023-02-28T09:48:28;0.70;;;0.70;;
16466;SDS011;8344;47.560;9.710;2023-02-28T09:51:04;0.90;;;0.90;;
16466;SDS011;8344;47.560;9.710;2023-02-28T09:53:35;0.80;;;0.80;;
16466;SDS011;8344;47.560;9.710;2023-02-28T09:59:51;0.90;;;0.90;;
16466;SDS011;8344;47.560;9.710;2023-02-28T10:05:12;0.90;;;0.90;;
16466;SDS011;8344;47.560;9.710;2023-02-28T10:10:38;0.73;;;0.73;;
16466;SDS011;8344;47.560;9.710;2023-02-28T10:13:06;0.63;;;0.63;;
16466;SDS011;8344;47.560;9.710;2023-02-28T10:15:41;0.80;;;0.80;;
16466;SDS011;8344;47.560;9.710;2023-02-28T10:18:10;0.70;;;0.70;;
16466;SDS011;8344;47.560;9.710;2023-02-28T10:20:40;0.83;;;0.83;;
16466;SDS011;8344;47.560;9.710;2023-02-28T10:25:57;0.60;;;0.60;;
16466;SDS011;8344;47.560;9.710;2023-02-28T10:28:24;0.80;;;0.80;;
16466;SDS011;8344;47.560;9.710;2023-02-28T10:30:54;0.60;;;0.60;;
16466;SDS011;8344;47.560;9.710;2023-02-28T10:33:30;0.80;;;0.80;;
16466;SDS011;8344;47.560;9.710;2023-02-28T10:35:57;0.60;;;0.60;;
16466;SDS011;8344;47.560;9.710;2023-02-28T10:38:25;0.80;;;0.80;;
16466;SDS011;8344;47.560;9.710;2023-02-28T10:41:03;0.77;;;0.77;;
16466;SDS011;8344;47.560;9.710;2023-02-28T10:43:29;0.90;;;0.90;;
16466;SDS011;8344;47.560;9.710;2023-02-28T10:48:29;0.80;;;0.80;;
16466;SDS011;8344;47.560;9.710;2023-02-28T10:50:54;1.00;;;1.00;;
16466;SDS011;8344;47.560;9.710;2023-02-28T10:56:00;0.50;;;0.50;;
16466;SDS011;8344;47.560;9.710;2023-02-28T10:58:47;0.70;;;0.70;;
16466;SDS011;8344;47.560;9.710;2023-02-28T11:03:53;0.80;;;0.80;;
16466;SDS011;8344;47.560;9.710;2023-02-28T11:08:44;0.70;;;0.70;;
16466;SDS011;8344;47.560;9.710;2023-02-28T11:11:11;0.80;;;0.80;;
16466;SDS011;8344;47.560;9.710;2023-02-28T11:13:37;0.90;;;0.90;;
16466;SDS011;8344;47.560;9.710;2023-02-28T11:16:07;0.80;;;0.80;;
16466;SDS011;8344;47.560;9.710;2023-02-28T11:18:42;0.87;;;0.87;;
16466;SDS011;8344;47.560;9.710;2023-02-28T11:21:27;0.70;;;0.70;;
16466;SDS011;8344;47.560;9.710;2023-02-28T11:24:01;0.80;;;0.80;;
16466;SDS011;8344;47.560;9.710;2023-02-28T11:26:36;0.77;;;0.77;;
16466;SDS011;8344;47.560;9.710;2023-02-28T11:29:11;0.70;;;0.70;;
16466;SDS011;8344;47.560;9.710;2023-02-28T11:31:45;0.77;;;0.77;;
16466;SDS011;8344;47.560;9.710;2023-02-28T11:34:26;0.77;;;0.77;;
16466;SDS011;8344;47.560;9.710;2023-02-28T11:36:53;0.70;;;0.70;;
16466;SDS011;8344;47.560;9.710;2023-02-28T11:39:19;0.63;;;0.63;;
16466;SDS011;8344;47.560;9.710;2023-02-28T11:53:38;0.70;;;0.70;;
16466;SDS011;8344;47.560;9.710;2023-02-28T11:56:26;0.80;;;0.80;;
16466;SDS011;8344;47.560;9.710;2023-02-28T11:59:00;0.70;;;0.70;;
16466;SDS011;8344;47.560;9.710;2023-02-28T12:01:48;0.80;;;0.80;;
16466;SDS011;8344;47.560;9.710;2023-02-28T12:07:17;0.80;;;0.80;;
16466;SDS011;8344;47.560;9.710;2023-02-28T12:15:38;0.60;;;0.60;;
16466;SDS011;8344;47.560;9.710;2023-02-28T12:20:38;0.80;;;0.80;;
16466;SDS011;8344;47.560;9.710;2023-02-28T12:28:14;0.70;;;0.70;;
16466;SDS011;8344;47.560;9.710;2023-02-28T12:30:46;0.63;;;0.63;;
16466;SDS011;8344;47.560;9.710;2023-02-28T12:33:26;0.60;;;0.60;;
16466;SDS011;8344;47.560;9.710;2023-02-28T12:35:58;0.50;;;0.50;;
16466;SDS011;8344;47.560;9.710;2023-02-28T12:38:29;0.80;;;0.80;;
16466;SDS011;8344;47.560;9.710;2023-02-28T12:41:22;0.90;;;0.90;;
16466;SDS011;8344;47.560;9.710;2023-02-28T12:43:55;0.70;;;0.70;;
16466;SDS011;8344;47.560;9.710;2023-02-28T12:46:29;0.70;;;0.70;;
16466;SDS011;8344;47.560;9.710;2023-02-28T12:49:00;0.70;;;0.70;;
16466;SDS011;8344;47.560;9.710;2023-02-28T12:51:30;0.70;;;0.70;;
16466;SDS011;8344;47.560;9.710;2023-02-28T12:57:15;0.50;;;0.50;;
16466;SDS011;8344;47.560;9.710;2023-02-28T13:00:00;0.80;;;0.80;;
16466;SDS011;8344;47.560;9.710;2023-02-28T13:05:07;0.80;;;0.80;;
16466;SDS011;8344;47.560;9.710;2023-02-28T13:10:43;0.80;;;0.80;;
16466;SDS011;8344;47.560;9.710;2023-02-28T13:13:14;0.60;;;0.60;;
16466;SDS011;8344;47.560;9.710;2023-02-28T13:15:41;0.63;;;0.63;;
16466;SDS011;8344;47.560;9.710;2023-02-28T13:18:28;0.70;;;0.70;;
16466;SDS011;8344;47.560;9.710;2023-02-28T13:21:26;0.60;;;0.60;;
16466;SDS011;8344;47.560;9.710;2023-02-28T13:32:18;0.70;;;0.70;;
16466;SDS011;8344;47.560;9.710;2023-02-28T13:34:33;0.70;;;0.70;;
16466;SDS011;8344;47.560;9.710;2023-02-28T13:47:27;0.70;;;0.70;;
16466;SDS011;8344;47.560;9.710;2023-02-28T13:49:54;0.80;;;0.80;;
16466;SDS011;8344;47.560;9.710;2023-02-28T14:06:26;0.60;;;0.60;;
16466;SDS011;8344;47.560;9.710;2023-02-28T14:09:00;0.80;;;0.80;;
16466;SDS011;8344;47.560;9.710;2023-02-28T14:11:30;0.60;;;0.60;;
16466;SDS011;8344;47.560;9.710;2023-02-28T14:13:59;0.80;;;0.80;;
16466;SDS011;8344;47.560;9.710;2023-02-28T14:16:26;0.80;;;0.80;;
16466;SDS011;8344;47.560;9.710;2023-02-28T14:26:56;0.67;;;0.67;;
16466;SDS011;8344;47.560;9.710;2023-02-28T14:32:18;0.67;;;0.67;;
16466;SDS011;8344;47.560;9.710;2023-02-28T14:35:10;0.67;;;0.67;;
16466;SDS011;8344;47.560;9.710;2023-02-28T14:37:41;0.60;;;0.60;;
16466;SDS011;8344;47.560;9.710;2023-02-28T14:40:15;0.83;;;0.83;;
16466;SDS011;8344;47.560;9.710;2023-02-28T14:42:46;0.80;;;0.80;;
16466;SDS011;8344;47.560;9.710;2023-02-28T14:45:22;0.70;;;0.70;;
16466;SDS011;8344;47.560;9.710;2023-02-28T14:47:48;0.60;;;0.60;;
16466;SDS011;8344;47.560;9.710;2023-02-28T14:50:22;0.70;;;0.70;;
16466;SDS011;8344;47.560;9.710;2023-02-28T14:52:52;0.80;;;0.80;;
16466;SDS011;8344;47.560;9.710;2023-02-28T14:55:19;0.80;;;0.80;;
16466;SDS011;8344;47.560;9.710;2023-02-28T14:57:51;0.50;;;0.50;;
16466;SDS011;8344;47.560;9.710;2023-02-28T15:00:22;0.63;;;0.63;;
16466;SDS011;8344;47.560;9.710;2023-02-28T15:02:49;0.77;;;0.77;;
16466;SDS011;8344;47.560;9.710;2023-02-28T15:07:41;0.73;;;0.73;;
16466;SDS011;8344;47.560;9.710;2023-02-28T15:12:34;0.80;;;0.80;;
16466;SDS011;8344;47.560;9.710;2023-02-28T15:15:00;0.83;;;0.83;;
16466;SDS011;8344;47.560;9.710;2023-02-28T15:17:25;0.90;;;0.90;;
16466;SDS011;8344;47.560;9.710;2023-02-28T15:19:51;0.70;;;0.70;;
16466;SDS011;8344;47.560;9.710;2023-02-28T15:22:26;0.90;;;0.90;;
16466;SDS011;8344;47.560;9.710;2023-02-28T15:24:56;0.90;;;0.90;;
16466;SDS011;8344;47.560;9.710;2023-02-28T15:27:22;0.80;;;0.80;;
16466;SDS011;8344;47.560;9.710;2023-02-28T15:29:49;0.90;;;0.90;;
16466;SDS011;8344;47.560;9.710;2023-02-28T15:34:57;0.77;;;0.77;;
16466;SDS011;8344;47.560;9.710;2023-02-28T15:37:28;0.93;;;0.93;;
16466;SDS011;8344;47.560;9.710;2023-02-28T15:39:56;0.77;;;0.77;;
16466;SDS011;8344;47.560;9.710;2023-02-28T15:42:23;0.80;;;0.80;;
16466;SDS011;8344;47.560;9.710;2023-02-28T15:44:53;0.80;;;0.80;;
16466;SDS011;8344;47.560;9.710;2023-02-28T15:47:22;0.80;;;0.80;;
16466;SDS011;8344;47.560;9.710;2023-02-28T15:49:53;0.80;;;0.80;;
16466;SDS011;8344;47.560;9.710;2023-02-28T15:52:37;0.90;;;0.90;;
16466;SDS011;8344;47.560;9.710;2023-02-28T15:55:09;1.00;;;1.00;;
16466;SDS011;8344;47.560;9.710;2023-02-28T15:57:38;0.90;;;0.90;;
16466;SDS011;8344;47.560;9.710;2023-02-28T16:00:04;0.73;;;0.73;;
16466;SDS011;8344;47.560;9.710;2023-02-28T16:02:35;0.70;;;0.70;;
16466;SDS011;8344;47.560;9.710;2023-02-28T16:07:33;0.70;;;0.70;;
16466;SDS011;8344;47.560;9.710;2023-02-28T16:09:59;0.67;;;0.67;;
16466;SDS011;8344;47.560;9.710;2023-02-28T16:12:26;0.80;;;0.80;;
16466;SDS011;8344;47.560;9.710;2023-02-28T16:14:53;0.80;;;0.80;;
16466;SDS011;8344;47.560;9.710;2023-02-28T16:17:23;0.90;;;0.90;;
16466;SDS011;8344;47.560;9.710;2023-02-28T16:19:50;0.93;;;0.93;;
16466;SDS011;8344;47.560;9.710;2023-02-28T16:22:16;0.80;;;0.80;;
16466;SDS011;8344;47.560;9.710;2023-02-28T16:24:41;0.80;;;0.80;;
16466;SDS011;8344;47.560;9.710;2023-02-28T16:27:06;0.70;;;0.70;;
16466;SDS011;8344;47.560;9.710;2023-02-28T16:29:47;0.77;;;0.77;;
16466;SDS011;8344;47.560;9.710;2023-02-28T16:32:16;0.90;;;0.90;;
16466;SDS011;8344;47.560;9.710;2023-02-28T16:34:42;0.80;;;0.80;;
16466;SDS011;8344;47.560;9.710;2023-02-28T16:37:10;0.93;;;0.93;;
16466;SDS011;8344;47.560;9.710;2023-02-28T16:39:37;1.00;;;1.00;;
16466;SDS011;8344;47.560;9.710;2023-02-28T16:42:03;0.80;;;0.80;;
16466;SDS011;8344;47.560;9.710;2023-02-28T16:44:33;0.90;;;0.90;;
16466;SDS011;8344;47.560;9.710;2023-02-28T16:46:59;0.83;;;0.83;;
16466;SDS011;8344;47.560;9.710;2023-02-28T16:49:25;0.80;;;0.80;;
16466;SDS011;8344;47.560;9.710;2023-02-28T16:51:50;0.73;;;0.73;;
16466;SDS011;8344;47.560;9.710;2023-02-28T16:54:16;0.70;;;0.70;;
16466;SDS011;8344;47.560;9.710;2023-02-28T16:56:43;1.00;;;1.00;;
16466;SDS011;8344;47.560;9.710;2023-02-28T16:59:10;1.10;;;1.10;;
16466;SDS011;8344;47.560;9.710;2023-02-28T17:01:36;0.83;;;0.83;;
16466;SDS011;8344;47.560;9.710;2023-02-28T17:04:02;1.10;;;1.10;;
16466;SDS011;8344;47.560;9.710;2023-02-28T17:06:28;0.80;;;0.80;;
16466;SDS011;8344;47.560;9.710;2023-02-28T17:08:54;0.93;;;0.93;;
16466;SDS011;8344;47.560;9.710;2023-02-28T17:11:20;0.97;;;0.97;;
16466;SDS011;8344;47.560;9.710;2023-02-28T17:13:46;0.80;;;0.80;;
16466;SDS011;8344;47.560;9.710;2023-02-28T17:16:28;0.87;;;0.87;;
16466;SDS011;8344;47.560;9.710;2023-02-28T17:18:57;1.10;;;1.10;;
16466;SDS011;8344;47.560;9.710;2023-02-28T17:21:26;0.77;;;0.77;;
16466;SDS011;8344;47.560;9.710;2023-02-28T17:23:52;0.70;;;0.70;;
16466;SDS011;8344;47.560;9.710;2023-02-28T17:26:18;0.80;;;0.80;;
16466;SDS011;8344;47.560;9.710;2023-02-28T17:28:49;1.00;;;1.00;;
16466;SDS011;8344;47.560;9.710;2023-02-28T17:31:15;1.03;;;1.03;;
16466;SDS011;8344;47.560;9.710;2023-02-28T17:33:41;0.83;;;0.83;;